createdAt,value
2022-10-30T00:01:57.687Z,1
2022-10-30T00:03:56.836Z,1
2022-10-30T00:05:57.581Z,1
2022-10-30T00:08:01.068Z,1
2022-10-30T00:09:56.931Z,1
2022-10-30T00:12:00.036Z,1
2022-10-30T00:13:57.480Z,1
2022-10-30T00:15:56.976Z,1
2022-10-30T00:18:01.076Z,1
2022-10-30T00:19:57.375Z,1
2022-10-30T00:23:56.948Z,1
2022-10-30T00:25:56.754Z,1
2022-10-30T00:28:04.213Z,1
2022-10-30T00:29:56.785Z,1
2022-10-30T00:31:56.780Z,1
2022-10-30T00:37:57.263Z,1
2022-10-30T00:40:01.110Z,1
2022-10-30T00:41:56.939Z,1
2022-10-30T00:43:57.639Z,1
2022-10-30T00:45:57.563Z,1
2022-10-30T00:48:00.920Z,1
2022-10-30T00:50:00.866Z,1
2022-10-30T00:51:56.939Z,1
2022-10-30T00:53:57.563Z,1
2022-10-30T00:55:56.860Z,1
2022-10-30T00:57:57.655Z,1
2022-10-30T00:59:57.413Z,1
2022-10-30T01:01:56.934Z,1
2022-10-30T01:03:54.982Z,1
2022-10-30T01:06:01.040Z,1
2022-10-30T01:07:57.746Z,1
2022-10-30T01:10:00.137Z,1
2022-10-30T01:12:00.496Z,1
2022-10-30T01:13:57.010Z,1
2022-10-30T01:15:57.463Z,1
2022-10-30T01:18:04.122Z,1
2022-10-30T01:21:57.054Z,1
2022-10-30T01:23:57.443Z,1
2022-10-30T01:25:57.870Z,1
2022-10-30T01:27:57.811Z,1
2022-10-30T01:29:57.592Z,1
2022-10-30T01:31:57.155Z,1
2022-10-30T01:33:57.670Z,1
2022-10-30T01:35:57.045Z,1
2022-10-30T01:37:57.245Z,1
2022-10-30T01:39:57.943Z,1
2022-10-30T01:41:56.892Z,1
2022-10-30T01:44:00.805Z,1
2022-10-30T01:45:56.930Z,1
2022-10-30T01:47:57.591Z,1
2022-10-30T01:49:57.649Z,1
2022-10-30T01:53:57.555Z,1
2022-10-30T01:55:57.446Z,1
2022-10-30T01:58:00.342Z,1
2022-10-30T01:59:56.926Z,1
2022-10-30T02:01:56.933Z,1
2022-10-30T02:05:57.014Z,1
2022-10-30T02:07:57.630Z,1
2022-10-30T02:09:57.562Z,1
2022-10-30T02:12:01.269Z,1
2022-10-30T02:13:56.825Z,1
2022-10-30T02:15:57.706Z,1
2022-10-30T02:18:04.113Z,1
2022-10-30T02:19:57.511Z,1
2022-10-30T02:21:57.652Z,1
2022-10-30T02:23:56.958Z,1
2022-10-30T02:26:04.188Z,1
2022-10-30T02:28:00.120Z,1
2022-10-30T02:30:00.942Z,1
2022-10-30T02:31:57.574Z,1
2022-10-30T02:34:00.303Z,1
2022-10-30T02:35:57.355Z,1
2022-10-30T02:37:57.159Z,1
2022-10-30T02:40:00.866Z,1
2022-10-30T02:41:57.606Z,1
2022-10-30T02:43:57.601Z,1
2022-10-30T02:45:57.003Z,1
2022-10-30T02:48:01.285Z,1
2022-10-30T02:50:00.976Z,1
2022-10-30T02:51:56.906Z,1
2022-10-30T02:55:56.955Z,1
2022-10-30T02:57:57.629Z,1
2022-10-30T02:59:57.830Z,1
2022-10-30T03:02:04.285Z,1
2022-10-30T03:04:00.901Z,1
2022-10-30T03:07:57.118Z,1
2022-10-30T03:10:01.140Z,1
2022-10-30T03:12:01.113Z,1
2022-10-30T03:13:57.616Z,1
2022-10-30T03:15:57.367Z,1
2022-10-30T03:17:57.840Z,1
2022-10-30T03:20:00.402Z,1
2022-10-30T03:21:57.813Z,1
2022-10-30T03:23:57.556Z,1
2022-10-30T03:25:57.036Z,1
2022-10-30T03:27:57.407Z,1
2022-10-30T03:29:56.920Z,1
2022-10-30T03:32:04.234Z,1
2022-10-30T03:33:57.411Z,1
2022-10-30T03:35:57.059Z,1
2022-10-30T03:37:56.891Z,1
2022-10-30T03:39:57.660Z,1
2022-10-30T03:41:57.444Z,1
2022-10-30T03:43:57.740Z,1
2022-10-30T03:46:01.029Z,1
2022-10-30T03:47:55.131Z,1
2022-10-30T03:49:56.849Z,1
2022-10-30T03:52:00.671Z,1
2022-10-30T03:53:56.853Z,1
2022-10-30T03:55:57.330Z,1
2022-10-30T03:57:57.088Z,1
2022-10-30T03:59:57.596Z,1
2022-10-30T04:01:57.955Z,1
2022-10-30T04:05:56.981Z,1
2022-10-30T04:07:56.847Z,1
2022-10-30T04:09:57.908Z,1
2022-10-30T04:11:57.009Z,1
2022-10-30T04:14:00.480Z,1
2022-10-30T04:16:03.567Z,1
2022-10-30T04:18:00.750Z,1
2022-10-30T04:19:57.166Z,1
2022-10-30T04:21:56.870Z,1
2022-10-30T04:25:57.116Z,1
2022-10-30T04:27:57.269Z,1
2022-10-30T04:29:57.195Z,1
2022-10-30T04:31:57.014Z,1
2022-10-30T04:33:56.914Z,1
2022-10-30T04:35:56.909Z,1
2022-10-30T04:38:00.329Z,1
2022-10-30T04:40:00.636Z,1
2022-10-30T04:41:57.234Z,1
2022-10-30T04:45:57.026Z,1
2022-10-30T04:48:00.556Z,1
2022-10-30T04:49:56.837Z,1
2022-10-30T04:51:56.881Z,1
2022-10-30T04:53:57.115Z,1
2022-10-30T04:55:57.120Z,1
2022-10-30T04:57:57.566Z,1
2022-10-30T04:59:56.923Z,1
2022-10-30T05:01:57.015Z,1
2022-10-30T05:05:56.827Z,1
2022-10-30T05:08:03.502Z,0
2022-10-30T05:09:56.852Z,0
2022-10-30T05:11:59.051Z,0
2022-10-30T05:14:00.461Z,0.1
2022-10-30T05:15:57.243Z,0.1
2022-10-30T05:17:57.633Z,0.2
2022-10-30T05:19:57.108Z,0.3
2022-10-30T05:21:56.984Z,0.4
2022-10-30T05:24:03.872Z,0.7
2022-10-30T05:26:00.102Z,1
2022-10-30T05:27:57.151Z,1.3
2022-10-30T05:29:56.859Z,2
2022-10-30T05:31:56.952Z,3
2022-10-30T05:33:57.959Z,4.3
2022-10-30T05:35:56.926Z,6
2022-10-30T05:37:56.948Z,8.6
2022-10-30T05:39:57.238Z,12.2
2022-10-30T05:42:03.858Z,18.2
2022-10-30T05:43:57.141Z,25.8
2022-10-30T05:45:57.482Z,36.6
2022-10-30T05:47:57.152Z,49.4
2022-10-30T05:49:56.966Z,70.1
2022-10-30T05:54:00.430Z,134.3
2022-10-30T05:55:57.015Z,172.4
2022-10-30T05:58:00.911Z,190.6
2022-10-30T06:00:00.647Z,221.4
2022-10-30T06:01:57.244Z,257.2
2022-10-30T06:04:01.172Z,314.2
2022-10-30T06:05:56.900Z,365
2022-10-30T06:08:00.310Z,445.9
2022-10-30T06:09:56.984Z,518
2022-10-30T06:11:56.846Z,601.8
2022-10-30T06:13:56.970Z,699.2
2022-10-30T06:15:57.040Z,812.4
2022-10-30T06:17:57.669Z,943.9
2022-10-30T06:20:00.546Z,1096.6
2022-10-30T06:21:57.052Z,1212
2022-10-30T06:23:57.057Z,1339.4
2022-10-30T06:25:57.283Z,1408.1
2022-10-30T06:27:57.408Z,1480.3
2022-10-30T06:29:57.050Z,1556.2
2022-10-30T06:31:57.833Z,1719.9
2022-10-30T06:33:57.057Z,1808
2022-10-30T06:35:56.949Z,1998.2
2022-10-30T06:38:00.630Z,2100.6
2022-10-30T06:40:03.578Z,2208.3
2022-10-30T06:41:56.944Z,2321.6
2022-10-30T06:43:57.144Z,2321.6
2022-10-30T06:45:57.369Z,2321.6
2022-10-30T06:48:00.720Z,2440.6
2022-10-30T06:49:57.017Z,2440.6
2022-10-30T06:51:57.064Z,2565.7
2022-10-30T06:53:57.098Z,2565.7
2022-10-30T06:56:03.565Z,2565.7
2022-10-30T06:57:57.284Z,2697.3
2022-10-30T06:59:56.853Z,2697.3
2022-10-30T07:01:59.085Z,2835.6
2022-10-30T07:03:57.031Z,2835.6
2022-10-30T07:06:03.425Z,2981
2022-10-30T07:07:56.955Z,2981
2022-10-30T07:11:57.302Z,3294.5
2022-10-30T07:13:57.136Z,3463.4
2022-10-30T07:17:57.520Z,3463.4
2022-10-30T07:19:57.114Z,3463.4
2022-10-30T07:21:57.083Z,3641
2022-10-30T07:23:57.202Z,3827.6
2022-10-30T07:26:03.658Z,3827.6
2022-10-30T07:27:57.545Z,4023.9
2022-10-30T07:29:56.907Z,4230.2
2022-10-30T07:33:56.915Z,6002.9
2022-10-30T07:35:57.169Z,12088.4
2022-10-30T07:37:57.190Z,16317.6
2022-10-30T07:39:57.267Z,15521.8
2022-10-30T07:41:57.062Z,18033.7
2022-10-30T07:44:03.621Z,20952.2
2022-10-30T07:46:00.030Z,23155.8
2022-10-30T07:48:03.948Z,24343
2022-10-30T07:49:57.096Z,22026.5
2022-10-30T07:51:57.249Z,20952.2
2022-10-30T07:53:56.974Z,24343
2022-10-30T07:56:00.088Z,15521.8
2022-10-30T07:57:57.126Z,26903.2
2022-10-30T07:59:57.013Z,29732.6
2022-10-30T08:01:57.052Z,31257
2022-10-30T08:03:57.245Z,32859.6
2022-10-30T08:08:00.299Z,34544.4
2022-10-30T08:09:57.006Z,38177.4
2022-10-30T08:11:57.148Z,38177.4
2022-10-30T08:13:57.222Z,28282.5
2022-10-30T08:15:57.331Z,42192.6
2022-10-30T08:18:00.717Z,42192.6
2022-10-30T08:19:56.927Z,42192.6
2022-10-30T08:21:59.106Z,42192.6
2022-10-30T08:24:00.601Z,44355.9
2022-10-30T08:26:03.727Z,36315.5
2022-10-30T08:27:57.336Z,44355.9
2022-10-30T08:29:56.955Z,42192.6
2022-10-30T08:32:00.675Z,46630
2022-10-30T08:37:53.403Z,46630
2022-10-30T08:37:53.410Z,46630
2022-10-30T08:39:01.916Z,49020.8
2022-10-30T08:41:01.935Z,49020.8
2022-10-30T08:44:20.560Z,49020.8
2022-10-30T08:50:26.814Z,51534.2
2022-10-30T08:51:36.975Z,51534.2
2022-10-30T08:55:47.776Z,54176.4
2022-10-30T09:00:27.574Z,54176.4
2022-10-30T09:03:59.494Z,56954
2022-10-30T09:05:55.728Z,56954
2022-10-30T09:07:56.716Z,56954
2022-10-30T09:09:59.837Z,56954
2022-10-30T09:11:56.066Z,56954
2022-10-30T09:13:56.484Z,56954
2022-10-30T09:17:56.610Z,59874.1
2022-10-30T09:19:55.840Z,59874.1
2022-10-30T09:21:55.852Z,54176.4
2022-10-30T09:23:56.794Z,62944
2022-10-30T09:25:56.422Z,62944
2022-10-30T09:27:55.811Z,62944
2022-10-30T09:29:56.385Z,62944
2022-10-30T09:31:56.182Z,62944
2022-10-30T09:33:55.675Z,66171.2
2022-10-30T09:35:59.871Z,66171.2
2022-10-30T09:37:59.945Z,66171.2
2022-10-30T09:40:00.053Z,66171.2
2022-10-30T09:41:55.873Z,66171.2
2022-10-30T09:43:55.835Z,69563.8
2022-10-30T09:45:56.584Z,69563.8
2022-10-30T09:47:56.729Z,66171.2
2022-10-30T09:49:59.718Z,66171.2
2022-10-30T09:51:59.077Z,66171.2
2022-10-30T09:54:03.011Z,69563.8
2022-10-30T09:55:56.018Z,66171.2
2022-10-30T09:57:55.913Z,66171.2
2022-10-30T10:00:00.089Z,69563.8
2022-10-30T10:01:56.851Z,69563.8
2022-10-30T10:03:56.812Z,69563.8
2022-10-30T10:06:03.282Z,73130.4
2022-10-30T10:07:57.042Z,69563.8
2022-10-30T10:09:56.079Z,69563.8
2022-10-30T10:11:59.024Z,73130.4
2022-10-30T10:15:55.913Z,73130.4
2022-10-30T10:17:56.117Z,73130.4
2022-10-30T10:19:56.919Z,73130.4
2022-10-30T10:21:56.384Z,73130.4
2022-10-30T10:23:58.416Z,76879.9
2022-10-30T10:25:55.202Z,76879.9
2022-10-30T10:27:54.711Z,76879.9
2022-10-30T10:29:56.672Z,73130.4
2022-10-30T10:31:56.206Z,76879.9
2022-10-30T10:33:56.721Z,76879.9
2022-10-30T10:35:59.259Z,76879.9
2022-10-30T10:38:00.716Z,76879.9
2022-10-30T10:41:59.438Z,76879.9
2022-10-30T10:44:00.370Z,76879.9
2022-10-30T10:46:00.069Z,76879.9
2022-10-30T10:47:56.561Z,76879.9
2022-10-30T10:50:00.029Z,76879.9
2022-10-30T10:51:56.105Z,76879.9
2022-10-30T10:53:56.194Z,76879.9
2022-10-30T10:55:57.160Z,76879.9
2022-10-30T10:57:56.854Z,76879.9
2022-10-30T10:59:56.299Z,76879.9
2022-10-30T11:02:00.211Z,76879.9
2022-10-30T11:03:56.163Z,66171.2
2022-10-30T11:06:00.553Z,76879.9
2022-10-30T11:07:56.469Z,76879.9
2022-10-30T11:10:01.359Z,76879.9
2022-10-30T11:11:56.984Z,76879.9
2022-10-30T11:14:00.485Z,76879.9
2022-10-30T11:15:59.773Z,76879.9
2022-10-30T11:18:00.546Z,73130.4
2022-10-30T11:19:56.495Z,76879.9
2022-10-30T11:21:56.791Z,76879.9
2022-10-30T11:25:56.408Z,76879.9
2022-10-30T11:27:56.262Z,76879.9
2022-10-30T11:29:56.292Z,76879.9
2022-10-30T11:31:57.043Z,76879.9
2022-10-30T11:33:56.568Z,76879.9
2022-10-30T11:35:57.224Z,76879.9
2022-10-30T11:37:56.659Z,73130.4
2022-10-30T11:39:56.926Z,73130.4
2022-10-30T11:41:56.420Z,73130.4
2022-10-30T11:43:56.505Z,73130.4
2022-10-30T11:46:04.060Z,73130.4
2022-10-30T11:47:57.095Z,73130.4
2022-10-30T11:49:56.441Z,73130.4
2022-10-30T11:53:57.243Z,73130.4
2022-10-30T11:56:00.353Z,73130.4
2022-10-30T11:57:56.714Z,73130.4
2022-10-30T11:59:54.783Z,73130.4
2022-10-30T12:01:56.804Z,69563.8
2022-10-30T12:04:00.325Z,69563.8
2022-10-30T12:06:00.587Z,69563.8
2022-10-30T12:07:57.385Z,69563.8
2022-10-30T12:09:57.219Z,66171.2
2022-10-30T12:11:57.081Z,69563.8
2022-10-30T12:13:56.672Z,66171.2
2022-10-30T12:15:57.449Z,62944
2022-10-30T12:17:56.935Z,69563.8
2022-10-30T12:19:57.407Z,69563.8
2022-10-30T12:21:56.654Z,66171.2
2022-10-30T12:23:57.297Z,69563.8
2022-10-30T12:25:57.535Z,69563.8
2022-10-30T12:27:56.838Z,69563.8
2022-10-30T12:30:07.711Z,69563.8
2022-10-30T12:31:56.894Z,69563.8
2022-10-30T12:33:57.647Z,69563.8
2022-10-30T12:35:56.926Z,69563.8
2022-10-30T12:38:01.305Z,66171.2
2022-10-30T12:40:00.001Z,66171.2
2022-10-30T12:41:56.887Z,66171.2
2022-10-30T12:43:57.447Z,66171.2
2022-10-30T12:45:56.875Z,66171.2
2022-10-30T12:48:01.457Z,62944
2022-10-30T12:49:56.965Z,66171.2
2022-10-30T12:51:56.959Z,66171.2
2022-10-30T12:53:57.182Z,66171.2
2022-10-30T12:55:57.109Z,59874.1
2022-10-30T12:57:57.028Z,62944
2022-10-30T12:59:57.765Z,62944
2022-10-30T13:01:58.068Z,62944
2022-10-30T13:03:57.193Z,62944
2022-10-30T13:06:04.263Z,62944
2022-10-30T13:07:57.795Z,62944
2022-10-30T13:10:01.026Z,59874.1
2022-10-30T13:11:57.151Z,62944
2022-10-30T13:14:01.092Z,59874.1
2022-10-30T13:15:57.269Z,59874.1
2022-10-30T13:19:57.258Z,56954
2022-10-30T13:21:57.762Z,54176.4
2022-10-30T13:23:57.407Z,56954
2022-10-30T13:25:58.061Z,56954
2022-10-30T13:27:57.444Z,49020.8
2022-10-30T13:29:57.369Z,54176.4
2022-10-30T13:31:55.110Z,51534.2
2022-10-30T13:33:57.663Z,51534.2
2022-10-30T13:35:57.523Z,54176.4
2022-10-30T13:38:01.913Z,51534.2
2022-10-30T13:40:01.580Z,49020.8
2022-10-30T13:41:58.145Z,51534.2
2022-10-30T13:46:02.238Z,38177.4
2022-10-30T13:47:54.990Z,32859.6
2022-10-30T13:50:00.177Z,19930.4
2022-10-30T13:51:57.633Z,28282.5
2022-10-30T13:53:58.399Z,36315.5
2022-10-30T13:55:57.851Z,31257
2022-10-30T13:57:57.891Z,32859.6
2022-10-30T14:00:01.368Z,38177.4
2022-10-30T14:02:05.169Z,28282.5
2022-10-30T14:03:58.296Z,36315.5
2022-10-30T14:05:58.352Z,34544.4
2022-10-30T14:08:00.594Z,19930.4
2022-10-30T14:09:58.025Z,5710.1
2022-10-30T14:11:57.998Z,6974.4
2022-10-30T14:13:57.997Z,14044.7
2022-10-30T14:16:02.214Z,7707.9
2022-10-30T14:17:57.986Z,17154.2
2022-10-30T14:19:58.250Z,4675.1
2022-10-30T14:21:58.046Z,12708.2
2022-10-30T14:23:58.185Z,14764.8
2022-10-30T14:25:58.269Z,5431.7
2022-10-30T14:29:58.153Z,3641
2022-10-30T14:32:05.597Z,3463.4
2022-10-30T14:33:58.728Z,3294.5
2022-10-30T14:35:59.256Z,3294.5
2022-10-30T14:37:58.786Z,3294.5
2022-10-30T14:39:59.492Z,3133.8
2022-10-30T14:41:58.461Z,2981
2022-10-30T14:43:58.427Z,2981
2022-10-30T14:45:59.083Z,2835.6
2022-10-30T14:48:02.707Z,2835.6
2022-10-30T14:49:59.471Z,2697.3
2022-10-30T14:52:01.951Z,2440.6
2022-10-30T14:53:59.269Z,2835.6
2022-10-30T14:55:58.576Z,2835.6
2022-10-30T14:57:58.894Z,2440.6
2022-10-30T15:00:03.709Z,2321.6
2022-10-30T15:01:59.009Z,2321.6
2022-10-30T15:03:59.258Z,2208.3
2022-10-30T15:05:59.122Z,2100.6
2022-10-30T15:07:58.956Z,1998.2
2022-10-30T15:09:58.814Z,1900.7
2022-10-30T15:11:58.873Z,1900.7
2022-10-30T15:16:03.006Z,1636
2022-10-30T15:17:59.792Z,1556.2
2022-10-30T15:19:59.684Z,1480.3
2022-10-30T15:21:59.216Z,1408.1
2022-10-30T15:24:03.280Z,1274.1
2022-10-30T15:26:08.207Z,1152.9
2022-10-30T15:29:09.022Z,992.3
2022-10-30T15:31:02.667Z,897.8
2022-10-30T15:33:02.864Z,772.8
2022-10-30T15:35:07.989Z,699.2
2022-10-30T15:37:05.472Z,632.7
2022-10-30T15:39:02.411Z,572.5
2022-10-30T15:41:02.332Z,518
2022-10-30T15:43:02.246Z,468.7
2022-10-30T15:45:04.912Z,403.4
2022-10-30T15:47:05.465Z,365
2022-10-30T15:49:01.643Z,314.2
2022-10-30T15:51:02.125Z,270.4
2022-10-30T15:53:02.370Z,232.8
2022-10-30T15:55:02.794Z,200.3
2022-10-30T15:57:36.863Z,164
2022-10-30T15:59:02.134Z,134.3
2022-10-30T16:01:05.824Z,115.6
2022-10-30T16:03:02.138Z,94.6
2022-10-30T16:05:01.815Z,73.7
2022-10-30T16:07:05.830Z,60.3
2022-10-30T16:09:02.795Z,47
2022-10-30T16:13:02.779Z,27.1
2022-10-30T16:15:06.936Z,20.1
2022-10-30T16:17:02.537Z,14.2
2022-10-30T16:19:02.471Z,10
2022-10-30T16:20:59.625Z,6.7
2022-10-30T16:23:02.476Z,4.5
2022-10-30T16:25:01.687Z,3
2022-10-30T16:27:02.857Z,2.1
2022-10-30T16:29:05.802Z,1.4
2022-10-30T16:31:02.493Z,1
2022-10-30T16:33:03.073Z,0.7
2022-10-30T16:35:01.764Z,0.5
2022-10-30T16:37:08.598Z,0.3
2022-10-30T16:39:05.955Z,0.2
2022-10-30T16:41:02.256Z,0.2
2022-10-30T16:43:02.989Z,0.1
2022-10-30T16:45:02.540Z,0
2022-10-30T16:47:02.461Z,0
2022-10-30T16:51:01.769Z,0
2022-10-30T16:53:08.895Z,0
2022-10-30T16:55:01.952Z,1
2022-10-30T16:57:04.870Z,1
2022-10-30T16:59:01.795Z,1
2022-10-30T17:01:02.673Z,1
2022-10-30T17:03:05.541Z,1
2022-10-30T17:05:02.475Z,1
2022-10-30T17:07:01.849Z,1
2022-10-30T17:09:02.509Z,1
2022-10-30T17:11:02.274Z,1
2022-10-30T17:13:02.498Z,1
2022-10-30T17:15:07.817Z,1
2022-10-30T17:17:02.510Z,1
2022-10-30T17:19:11.341Z,1
2022-10-30T17:21:02.501Z,1
2022-10-30T17:22:59.438Z,1
2022-10-30T17:25:02.360Z,1
2022-10-30T17:27:00.215Z,1
2022-10-30T17:29:02.651Z,1
2022-10-30T17:31:02.436Z,1
2022-10-30T17:33:02.861Z,1
2022-10-30T17:35:06.328Z,1
2022-10-30T17:37:01.925Z,1
2022-10-30T17:39:02.365Z,1
2022-10-30T17:41:02.812Z,1
2022-10-30T17:43:02.693Z,1
2022-10-30T17:45:02.373Z,1
2022-10-30T17:47:06.110Z,1
2022-10-30T17:49:02.022Z,1
2022-10-30T17:51:02.347Z,1
2022-10-30T17:53:02.663Z,1
2022-10-30T17:55:02.975Z,1
2022-10-30T17:57:05.931Z,1
2022-10-30T17:59:02.643Z,1
2022-10-30T18:01:09.184Z,1
2022-10-30T18:03:03.082Z,1
2022-10-30T18:05:08.904Z,1
2022-10-30T18:07:06.102Z,1
2022-10-30T18:09:03.069Z,1
2022-10-30T18:11:02.276Z,1
2022-10-30T18:13:02.301Z,1
2022-10-30T18:15:01.791Z,1
2022-10-30T18:17:02.518Z,1
2022-10-30T18:19:02.112Z,1
2022-10-30T18:21:02.242Z,1
2022-10-30T18:23:03.083Z,1
2022-10-30T18:25:05.799Z,1
2022-10-30T18:27:09.023Z,1
2022-10-30T18:29:05.806Z,1
2022-10-30T18:31:02.305Z,1
2022-10-30T18:33:02.927Z,1
2022-10-30T18:35:05.928Z,1
2022-10-30T18:37:02.297Z,1
2022-10-30T18:39:02.029Z,1
2022-10-30T18:41:09.035Z,1
2022-10-30T18:43:02.876Z,1
2022-10-30T18:45:02.607Z,1
2022-10-30T18:47:03.747Z,1
2022-10-30T18:49:09.081Z,1
2022-10-30T18:51:05.918Z,1
2022-10-30T18:53:05.781Z,1
2022-10-30T18:54:59.677Z,1
2022-10-30T18:57:01.899Z,1
2022-10-30T18:59:02.638Z,1
2022-10-30T19:01:12.226Z,1
2022-10-30T19:03:02.758Z,1
2022-10-30T19:05:02.336Z,1
2022-10-30T19:07:02.849Z,1
2022-10-30T19:09:01.861Z,1
2022-10-30T19:11:02.772Z,1
2022-10-30T19:13:11.874Z,1
2022-10-30T19:15:05.833Z,1
2022-10-30T19:17:02.796Z,1
2022-10-30T19:19:02.921Z,1
2022-10-30T19:21:04.897Z,1
2022-10-30T19:23:02.452Z,1
2022-10-30T19:24:59.216Z,1
2022-10-30T19:27:00.073Z,1
2022-10-30T19:29:02.637Z,1
2022-10-30T19:31:03.213Z,1
2022-10-30T19:33:02.826Z,1
2022-10-30T19:35:02.340Z,1
2022-10-30T19:37:04.369Z,1
2022-10-30T19:39:09.436Z,1
2022-10-30T19:41:02.750Z,1
2022-10-30T19:43:05.873Z,1
2022-10-30T19:45:02.510Z,1
2022-10-30T19:47:02.826Z,1
2022-10-30T19:49:05.865Z,1
2022-10-30T19:51:02.555Z,1
2022-10-30T19:55:02.471Z,1
2022-10-30T19:57:02.036Z,1
2022-10-30T19:59:01.888Z,1
2022-10-30T20:01:03.297Z,1
2022-10-30T20:03:04.232Z,1
2022-10-30T20:05:01.944Z,1
2022-10-30T20:07:05.943Z,1
2022-10-30T20:09:01.821Z,1
2022-10-30T20:11:02.128Z,1
2022-10-30T20:13:01.882Z,1
2022-10-30T20:15:00.311Z,1
2022-10-30T20:17:02.632Z,1
2022-10-30T20:19:02.172Z,1
2022-10-30T20:21:01.889Z,1
2022-10-30T20:23:05.863Z,1
2022-10-30T20:25:01.847Z,1
2022-10-30T20:27:04.634Z,1
2022-10-30T20:29:02.577Z,1
2022-10-30T20:31:01.961Z,1
2022-10-30T20:33:03.732Z,1
2022-10-30T20:35:05.163Z,1
2022-10-30T20:37:02.882Z,1
2022-10-30T20:39:05.933Z,1
2022-10-30T20:41:02.354Z,1
2022-10-30T20:43:05.654Z,1
2022-10-30T20:45:09.087Z,1
2022-10-30T20:47:02.556Z,1
2022-10-30T20:49:12.019Z,1
2022-10-30T20:51:01.979Z,1
2022-10-30T20:53:05.831Z,1
2022-10-30T20:55:03.027Z,1
2022-10-30T20:57:02.438Z,1
2022-10-30T21:01:02.063Z,1
2022-10-30T21:03:02.466Z,1
2022-10-30T21:05:11.662Z,1
2022-10-30T21:07:03.005Z,1
2022-10-30T21:09:02.880Z,1
2022-10-30T21:11:02.243Z,1
2022-10-30T21:13:03.732Z,1
2022-10-30T21:15:01.965Z,1
2022-10-30T21:17:02.461Z,1
2022-10-30T21:21:02.112Z,1
2022-10-30T21:23:02.595Z,1
2022-10-30T21:25:09.166Z,1
2022-10-30T21:27:08.972Z,1
2022-10-30T21:29:02.372Z,1
2022-10-30T21:31:02.011Z,1
2022-10-30T21:33:02.791Z,1
2022-10-30T21:35:01.834Z,1
2022-10-30T21:37:10.812Z,1
2022-10-30T21:39:06.036Z,1
2022-10-30T21:43:04.064Z,1
2022-10-30T21:45:02.689Z,1
2022-10-30T21:47:08.920Z,1
2022-10-30T21:49:02.779Z,1
2022-10-30T21:51:02.405Z,1
2022-10-30T21:53:02.727Z,1
2022-10-30T21:55:05.746Z,1
2022-10-30T21:57:02.057Z,1
2022-10-30T21:59:02.936Z,1
2022-10-30T22:01:01.869Z,1
2022-10-30T22:03:02.021Z,1
2022-10-30T22:05:01.946Z,1
2022-10-30T22:07:08.663Z,1
2022-10-30T22:09:02.860Z,1
2022-10-30T22:11:05.877Z,1
2022-10-30T22:13:01.983Z,1
2022-10-30T22:15:01.920Z,1
2022-10-30T22:17:02.084Z,1
2022-10-30T22:19:02.594Z,1
2022-10-30T22:21:06.026Z,1
2022-10-30T22:23:06.027Z,1
2022-10-30T22:25:02.937Z,1
2022-10-30T22:27:02.566Z,1
2022-10-30T22:29:02.669Z,1
2022-10-30T22:31:02.540Z,1
2022-10-30T22:33:07.983Z,1
2022-10-30T22:35:02.354Z,1
2022-10-30T22:37:02.450Z,1
2022-10-30T22:39:05.776Z,1
2022-10-30T22:41:02.544Z,1
2022-10-30T22:43:02.040Z,1
2022-10-30T22:45:02.652Z,1
2022-10-30T22:47:02.819Z,1
2022-10-30T22:49:02.887Z,1
2022-10-30T22:51:02.463Z,1
2022-10-30T22:53:08.985Z,1
2022-10-30T22:55:02.461Z,1
2022-10-30T22:57:05.780Z,1
2022-10-30T22:59:02.722Z,1
2022-10-30T23:01:06.013Z,1
2022-10-30T23:03:02.700Z,1
2022-10-30T23:05:02.072Z,1
2022-10-30T23:07:02.511Z,1
2022-10-30T23:09:02.324Z,1
2022-10-30T23:11:02.611Z,1
2022-10-30T23:13:09.105Z,1
2022-10-30T23:15:01.875Z,1
2022-10-30T23:17:02.523Z,1
2022-10-30T23:19:02.710Z,1
2022-10-30T23:21:09.129Z,1
2022-10-30T23:23:01.871Z,1
2022-10-30T23:25:02.721Z,1
2022-10-30T23:27:07.081Z,1
2022-10-30T23:29:06.008Z,1
2022-10-30T23:31:02.234Z,1
2022-10-30T23:33:03.064Z,1
2022-10-30T23:35:02.727Z,1
2022-10-30T23:37:05.953Z,1
2022-10-30T23:39:02.339Z,1
2022-10-30T23:41:02.203Z,1
2022-10-30T23:43:05.971Z,1
2022-10-30T23:45:05.984Z,1
2022-10-30T23:47:02.094Z,1
2022-10-30T23:49:02.455Z,1
2022-10-30T23:51:07.383Z,1
2022-10-30T23:53:02.316Z,1
2022-10-30T23:55:09.192Z,1
2022-10-30T23:57:02.756Z,1
2022-10-30T23:59:09.199Z,1
